Time;durP1;ratioP1;P1;durP2;ratioP2;P2;SDS_P1;SDS_P2;PMS_P1;PMS_P2;Temp;Humidity;BMP_temperature;BMP_pressure;BME280_temperature;BME280_humidity;BME280_pressure;Samples;Min_cycle;Max_cycle;Signal;HPM_P1;HPM_P2
2022/09/23 03:02:20;;;;;;;0.60;0.60;;;11.30;74.40;;;;;;5402497;23;20500;-73
2022/09/23 03:04:53;;;;;;;0.60;0.60;;;11.30;74.40;;;;;;4937702;29;20431;-73
2022/09/23 03:07:26;;;;;;;0.80;0.70;;;11.20;74.40;;;;;;4937412;29;20955;-73
2022/09/23 03:10:04;;;;;;;0.60;0.60;;;11.20;74.40;;;;;;4937730;29;20496;-73
2022/09/23 03:12:39;;;;;;;0.70;0.70;;;11.10;74.60;;;;;;4937539;29;20487;-73
2022/09/23 03:15:18;;;;;;;0.70;0.63;;;11.10;74.60;;;;;;4939003;29;20452;-73
2022/09/23 03:17:54;;;;;;;0.67;0.60;;;11.10;74.90;;;;;;4937585;29;20778;-73
2022/09/23 03:20:26;;;;;;;0.60;0.60;;;11.10;75.00;;;;;;4937207;29;20859;-73
2022/09/23 03:22:59;;;;;;;0.60;0.60;;;11.10;75.10;;;;;;4937461;29;20436;-73
2022/09/23 03:25:32;;;;;;;0.70;0.60;;;11.10;75.10;;;;;;4937337;29;20468;-73
2022/09/23 03:28:00;;;;;;;0.60;0.60;;;11.10;75.00;;;;;;4937327;29;20440;-72
2022/09/23 03:30:28;;;;;;;0.70;0.60;;;11.00;75.10;;;;;;4936905;29;20507;-72
2022/09/23 03:32:59;;;;;;;0.70;0.67;;;11.00;74.90;;;;;;4937212;29;20531;-73
2022/09/23 03:35:30;;;;;;;0.60;0.60;;;11.00;75.00;;;;;;4937211;29;20809;-72
2022/09/23 03:38:03;;;;;;;0.60;0.60;;;11.00;74.90;;;;;;4937169;29;20436;-73
2022/09/23 03:40:34;;;;;;;0.73;0.70;;;11.00;74.90;;;;;;4937045;29;20447;-73
2022/09/23 03:43:03;;;;;;;0.70;0.70;;;11.00;75.10;;;;;;4937102;29;20432;-73
2022/09/23 03:45:32;;;;;;;0.70;0.70;;;11.00;75.00;;;;;;4936618;29;21061;-73
2022/09/23 03:48:01;;;;;;;0.60;0.60;;;10.90;75.10;;;;;;4936948;29;20456;-73
2022/09/23 03:50:28;;;;;;;0.60;0.60;;;10.90;75.20;;;;;;4936823;29;20467;-72
2022/09/23 03:52:55;;;;;;;0.80;0.70;;;10.90;75.20;;;;;;4936863;29;20455;-72
2022/09/23 03:55:22;;;;;;;0.70;0.67;;;10.80;75.20;;;;;;4936845;29;20533;-73
2022/09/23 03:57:48;;;;;;;0.70;0.63;;;10.80;75.30;;;;;;4936805;29;20466;-73
2022/09/23 04:00:16;;;;;;;0.63;0.60;;;10.70;75.60;;;;;;4936744;29;20484;-72
2022/09/23 04:02:42;;;;;;;0.67;0.60;;;10.70;75.70;;;;;;4936544;29;20491;-73
2022/09/23 04:05:12;;;;;;;0.60;0.60;;;10.70;75.50;;;;;;4936572;29;20830;-72
2022/09/23 04:07:39;;;;;;;0.70;0.70;;;10.70;75.60;;;;;;4936632;29;20499;-72
2022/09/23 04:10:06;;;;;;;0.70;0.60;;;10.70;75.70;;;;;;4936569;29;20448;-73
2022/09/23 04:12:33;;;;;;;0.70;0.70;;;10.60;75.80;;;;;;4936492;29;20468;-73
2022/09/23 04:15:00;;;;;;;1.27;0.70;;;10.60;75.80;;;;;;4936308;29;20452;-73
2022/09/23 04:17:26;;;;;;;0.60;0.60;;;10.60;75.80;;;;;;4936193;29;20943;-73
2022/09/23 04:19:53;;;;;;;0.87;0.70;;;10.60;75.70;;;;;;4936143;29;21011;-73
2022/09/23 04:22:21;;;;;;;0.60;0.60;;;10.60;75.50;;;;;;4936392;29;20887;-72
2022/09/23 04:24:48;;;;;;;0.60;0.60;;;10.60;75.50;;;;;;4936400;29;20452;-73
2022/09/23 04:27:14;;;;;;;0.70;0.60;;;10.50;75.30;;;;;;4935983;29;20485;-73
2022/09/23 04:29:41;;;;;;;0.63;0.63;;;10.50;74.90;;;;;;4936317;29;20507;-72
2022/09/23 04:32:08;;;;;;;0.70;0.70;;;10.40;74.90;;;;;;4935917;29;20993;-73
2022/09/23 04:34:34;;;;;;;0.70;0.60;;;10.30;74.90;;;;;;4936271;29;20440;-72
2022/09/23 04:37:01;;;;;;;0.60;0.60;;;10.30;75.00;;;;;;4936243;29;20449;-73
2022/09/23 04:39:29;;;;;;;0.70;0.70;;;10.30;75.10;;;;;;4936269;29;20460;-72
2022/09/23 04:41:56;;;;;;;0.60;0.60;;;10.30;74.80;;;;;;4936124;29;20472;-72
2022/09/23 04:44:22;;;;;;;0.60;0.60;;;10.20;74.80;;;;;;4935942;29;20859;-73
2022/09/23 04:46:50;;;;;;;0.70;0.70;;;10.10;74.90;;;;;;4936234;29;20484;-73
2022/09/23 04:49:17;;;;;;;0.63;0.63;;;10.10;75.40;;;;;;4936399;29;20471;-72
2022/09/23 04:51:44;;;;;;;0.60;0.60;;;10.00;75.70;;;;;;4936077;29;20468;-73
2022/09/23 04:54:13;;;;;;;0.77;0.77;;;10.00;76.00;;;;;;4936089;29;20511;-73
2022/09/23 04:56:41;;;;;;;1.03;0.67;;;10.00;76.30;;;;;;4936068;29;20455;-73
2022/09/23 04:59:08;;;;;;;0.60;0.60;;;10.00;76.20;;;;;;4936080;29;20822;-73
2022/09/23 05:01:35;;;;;;;0.70;0.70;;;10.00;76.20;;;;;;4935765;29;20515;-73
2022/09/23 05:04:04;;;;;;;0.80;0.80;;;10.10;76.20;;;;;;4935750;29;20456;-72
2022/09/23 05:06:31;;;;;;;2.40;0.70;;;10.10;76.50;;;;;;4935943;29;20501;-73
2022/09/23 05:08:59;;;;;;;0.60;0.60;;;10.10;76.60;;;;;;4936225;29;20455;-72
2022/09/23 05:11:27;;;;;;;0.70;0.70;;;10.10;76.60;;;;;;4936383;29;20523;-72
2022/09/23 05:13:55;;;;;;;0.60;0.60;;;10.10;76.60;;;;;;4935642;29;20456;-72
2022/09/23 05:16:22;;;;;;;0.60;0.60;;;10.10;76.60;;;;;;4935621;29;20982;-72
2022/09/23 05:18:50;;;;;;;0.80;0.67;;;10.10;76.60;;;;;;4935873;29;20531;-72
2022/09/23 05:21:19;;;;;;;0.60;0.60;;;10.10;76.80;;;;;;4935830;29;20476;-72
2022/09/23 05:23:48;;;;;;;0.77;0.70;;;10.10;76.80;;;;;;4935935;29;20448;-73
2022/09/23 05:26:15;;;;;;;0.70;0.70;;;10.10;76.50;;;;;;4935780;29;20535;-73
2022/09/23 05:28:41;;;;;;;0.70;0.70;;;10.20;76.40;;;;;;4938831;29;20447;-70
2022/09/23 05:31:13;;;;;;;0.70;0.70;;;10.20;76.00;;;;;;4939380;29;20483;-72
2022/09/23 05:33:41;;;;;;;0.63;0.60;;;10.40;75.60;;;;;;4939141;29;20447;-72
2022/09/23 05:36:08;;;;;;;0.60;0.60;;;10.90;74.90;;;;;;4939268;29;20452;-72
2022/09/23 05:38:35;;;;;;;0.60;0.60;;;11.40;73.40;;;;;;4939312;29;20865;-72
2022/09/23 05:41:03;;;;;;;0.60;0.60;;;12.10;70.90;;;;;;4938936;29;20983;-72
2022/09/23 05:43:30;;;;;;;0.70;0.70;;;12.60;68.60;;;;;;4938953;29;20503;-73
2022/09/23 05:46:02;;;;;;;0.87;0.80;;;12.90;67.70;;;;;;4939052;29;20455;-72
2022/09/23 05:48:31;;;;;;;0.73;0.73;;;13.20;66.70;;;;;;4939166;29;20487;-72
2022/09/23 05:50:58;;;;;;;0.80;0.80;;;13.50;65.80;;;;;;4939024;29;20547;-73
2022/09/23 05:53:25;;;;;;;0.80;0.80;;;13.50;64.90;;;;;;4939068;29;20455;-72
2022/09/23 05:55:53;;;;;;;0.83;0.83;;;13.30;65.20;;;;;;4938971;29;20456;-73
2022/09/23 05:58:20;;;;;;;0.70;0.70;;;13.00;66.10;;;;;;4939420;29;20547;-73
2022/09/23 06:00:48;;;;;;;0.70;0.70;;;12.80;66.90;;;;;;4938734;29;20574;-72
2022/09/23 06:03:15;;;;;;;0.70;0.70;;;12.50;67.80;;;;;;4938903;29;20440;-72
2022/09/23 06:05:43;;;;;;;0.70;0.70;;;12.30;68.70;;;;;;4938805;29;20526;-73
2022/09/23 06:08:11;;;;;;;0.90;0.90;;;12.10;69.50;;;;;;4938399;29;21003;-72
2022/09/23 06:10:38;;;;;;;0.80;0.80;;;12.10;70.40;;;;;;4938371;29;20807;-72
2022/09/23 06:13:04;;;;;;;0.70;0.70;;;12.20;70.60;;;;;;4938700;29;20456;-73
2022/09/23 06:15:31;;;;;;;0.60;0.60;;;12.60;70.30;;;;;;4938623;29;20487;-73
2022/09/23 06:17:58;;;;;;;0.60;0.60;;;13.60;68.90;;;;;;4938574;29;20486;-73
2022/09/23 06:20:24;;;;;;;0.70;0.70;;;14.80;65.80;;;;;;4938524;29;20452;-73
2022/09/23 06:22:52;;;;;;;0.60;0.60;;;15.90;62.30;;;;;;4938497;29;20452;-73
2022/09/23 06:25:21;;;;;;;0.70;0.60;;;17.10;59.50;;;;;;4938431;29;20456;-73
2022/09/23 06:27:54;;;;;;;0.70;0.70;;;17.90;57.20;;;;;;4938824;29;20491;-73
2022/09/23 06:30:21;;;;;;;0.70;0.70;;;18.40;55.70;;;;;;4938411;29;20519;-73
2022/09/23 06:32:50;;;;;;;1.17;0.80;;;19.20;54.50;;;;;;4938273;29;20484;-73
2022/09/23 06:35:18;;;;;;;2.07;1.50;;;20.00;52.70;;;;;;4938493;29;20458;-73
2022/09/23 06:37:44;;;;;;;0.97;0.73;;;20.80;50.10;;;;;;4938596;29;20539;-73
2022/09/23 06:40:13;;;;;;;1.37;1.10;;;20.60;49.80;;;;;;4939074;29;20459;-73
2022/09/23 06:42:40;;;;;;;0.63;0.63;;;21.30;48.80;;;;;;4938838;29;21054;-74
2022/09/23 06:45:10;;;;;;;1.80;1.30;;;21.20;49.20;;;;;;4939556;29;20543;-73
2022/09/23 06:47:37;;;;;;;0.70;0.60;;;21.50;48.00;;;;;;4939022;29;20476;-74
2022/09/23 06:50:04;;;;;;;1.20;0.90;;;21.80;48.30;;;;;;4939297;29;20479;-74
2022/09/23 06:52:31;;;;;;;2.40;2.00;;;22.00;47.30;;;;;;4938579;29;20472;-74
2022/09/23 06:54:59;;;;;;;0.90;0.80;;;22.20;47.30;;;;;;4938614;29;20456;-74
2022/09/23 06:57:30;;;;;;;2.70;1.60;;;22.90;46.30;;;;;;4938240;29;20827;-73
2022/09/23 06:59:57;;;;;;;0.97;0.63;;;23.50;45.70;;;;;;4937870;29;20440;-73
2022/09/23 07:02:24;;;;;;;0.60;0.60;;;24.00;44.90;;;;;;4937422;29;20496;-73
2022/09/23 07:04:51;;;;;;;0.80;0.60;;;23.60;44.60;;;;;;4937713;29;20448;-73
2022/09/23 07:07:18;;;;;;;0.60;0.60;;;23.90;45.10;;;;;;4937333;29;21015;-71
2022/09/23 07:09:44;;;;;;;0.60;0.60;;;23.20;45.30;;;;;;4937592;29;20579;-71
2022/09/23 07:12:12;;;;;;;0.60;0.60;;;22.80;46.40;;;;;;4937244;29;20983;-71
2022/09/23 07:14:40;;;;;;;0.60;0.60;;;22.80;46.30;;;;;;4937613;29;20511;-70
2022/09/23 07:17:06;;;;;;;0.60;0.60;;;22.20;47.30;;;;;;4937572;29;20452;-70
2022/09/23 07:19:34;;;;;;;0.60;0.50;;;21.80;48.40;;;;;;4937459;29;20452;-71
2022/09/23 07:22:01;;;;;;;0.70;0.70;;;21.40;49.90;;;;;;4937256;29;20483;-71
2022/09/23 07:24:28;;;;;;;0.70;0.63;;;21.10;50.60;;;;;;4937411;29;20455;-71
2022/09/23 07:26:54;;;;;;;0.70;0.70;;;20.60;52.40;;;;;;4937254;29;20491;-71
2022/09/23 07:29:21;;;;;;;0.60;0.60;;;19.40;54.50;;;;;;4937238;29;20538;-70
2022/09/23 07:31:49;;;;;;;0.70;0.70;;;18.50;57.10;;;;;;4937446;29;20472;-70
2022/09/23 07:34:16;;;;;;;0.70;0.70;;;17.20;59.90;;;;;;4936902;29;20452;-70
2022/09/23 07:36:42;;;;;;;0.77;0.77;;;16.70;61.50;;;;;;4936868;29;20503;-70
2022/09/23 07:39:11;;;;;;;0.80;0.80;;;16.60;61.80;;;;;;4936868;29;20512;-70
2022/09/23 07:41:38;;;;;;;0.70;0.70;;;16.30;63.00;;;;;;4937083;29;20468;-71
2022/09/23 07:44:05;;;;;;;0.67;0.67;;;15.60;64.70;;;;;;4936993;29;20507;-70
2022/09/23 07:46:33;;;;;;;0.70;0.70;;;15.90;64.40;;;;;;4936940;29;20448;-71
2022/09/23 07:49:02;;;;;;;0.60;0.60;;;16.00;64.00;;;;;;4936939;29;20448;-71
2022/09/23 07:51:31;;;;;;;0.70;0.70;;;15.70;64.40;;;;;;4936346;29;20468;-70
2022/09/23 07:53:59;;;;;;;0.90;0.90;;;15.50;64.10;;;;;;4936821;29;20555;-71
2022/09/23 07:56:27;;;;;;;0.60;0.60;;;15.50;65.10;;;;;;4936840;29;20456;-71
2022/09/23 07:58:59;;;;;;;0.70;0.70;;;15.40;65.30;;;;;;4936812;29;20448;-70
2022/09/23 08:01:27;;;;;;;0.70;0.60;;;15.30;66.40;;;;;;4936526;29;20914;-71
2022/09/23 08:03:54;;;;;;;0.80;0.70;;;15.00;67.10;;;;;;4936622;29;20498;-73
2022/09/23 08:06:23;;;;;;;0.70;0.70;;;14.70;67.50;;;;;;4936698;29;20482;-73
2022/09/23 08:08:50;;;;;;;0.70;0.70;;;14.60;67.90;;;;;;4936525;29;20514;-73
2022/09/23 08:11:17;;;;;;;0.70;0.70;;;14.70;68.70;;;;;;4936558;29;20526;-72
2022/09/23 08:13:44;;;;;;;0.70;0.67;;;14.70;68.50;;;;;;4936583;29;20499;-73
2022/09/23 08:16:10;;;;;;;0.70;0.70;;;14.70;67.90;;;;;;4936481;29;20451;-72
2022/09/23 08:18:37;;;;;;;0.70;0.70;;;15.00;67.40;;;;;;4936165;29;20808;-73
2022/09/23 08:21:04;;;;;;;0.60;0.53;;;14.80;67.60;;;;;;4936357;29;20480;-73
2022/09/23 08:23:33;;;;;;;0.63;0.60;;;14.80;67.50;;;;;;4936436;29;20452;-73
2022/09/23 08:26:01;;;;;;;0.60;0.60;;;15.00;67.60;;;;;;4936356;29;20471;-73
2022/09/23 08:28:28;;;;;;;0.60;0.57;;;15.00;66.30;;;;;;4936255;29;20479;-73
2022/09/23 08:30:55;;;;;;;0.60;0.60;;;15.10;66.90;;;;;;4936254;29;20523;-73
2022/09/23 08:33:22;;;;;;;0.60;0.60;;;15.20;65.20;;;;;;4936336;29;20448;-72
2022/09/23 08:35:48;;;;;;;0.63;0.60;;;15.30;64.80;;;;;;4936014;29;20936;-72
2022/09/23 08:38:15;;;;;;;0.60;0.60;;;15.20;64.50;;;;;;4936241;29;20484;-73
2022/09/23 08:40:47;;;;;;;0.60;0.50;;;15.40;65.80;;;;;;4936153;29;20456;-72
2022/09/23 08:43:20;;;;;;;0.90;0.80;;;15.50;64.80;;;;;;4935964;29;20926;-73
2022/09/23 08:45:49;;;;;;;1.23;0.60;;;15.60;65.30;;;;;;4935877;29;20817;-73
2022/09/23 08:48:20;;;;;;;0.70;0.63;;;15.70;64.20;;;;;;4936197;29;21034;-73
2022/09/23 08:50:52;;;;;;;0.60;0.60;;;15.90;63.40;;;;;;4936242;29;20476;-73
2022/09/23 08:53:25;;;;;;;0.60;0.60;;;15.90;63.20;;;;;;4935836;29;20883;-72
2022/09/23 08:55:55;;;;;;;0.63;0.63;;;15.80;62.50;;;;;;4936327;29;20495;-73
2022/09/23 08:58:33;;;;;;;0.70;0.70;;;15.30;64.50;;;;;;4936072;29;20549;-73
2022/09/23 09:01:12;;;;;;;0.60;0.60;;;15.20;66.40;;;;;;4935862;29;20931;-73
2022/09/23 09:03:45;;;;;;;0.70;0.60;;;15.30;66.20;;;;;;4939206;29;20440;-73
2022/09/23 09:06:18;;;;;;;0.60;0.60;;;15.20;66.80;;;;;;4939973;29;20488;-73
2022/09/23 09:08:52;;;;;;;0.70;0.60;;;15.10;66.70;;;;;;4939814;29;20467;-73
2022/09/23 09:11:23;;;;;;;1.50;0.90;;;15.20;67.80;;;;;;4939937;29;20479;-73
2022/09/23 09:13:59;;;;;;;0.60;0.60;;;15.40;67.40;;;;;;4940976;29;20456;-72
2022/09/23 09:16:45;;;;;;;0.60;0.60;;;15.60;66.10;;;;;;4939766;29;20495;-73
2022/09/23 09:19:17;;;;;;;0.67;0.60;;;15.80;65.30;;;;;;4939701;29;20527;-73
2022/09/23 09:21:47;;;;;;;0.60;0.60;;;15.70;66.20;;;;;;4939568;29;20472;-73
2022/09/23 09:24:18;;;;;;;0.60;0.60;;;15.70;66.00;;;;;;4939575;29;20467;-73
2022/09/23 09:26:46;;;;;;;0.60;0.53;;;15.60;66.40;;;;;;4939264;29;20983;-73
2022/09/23 09:29:17;;;;;;;0.60;0.50;;;15.80;65.90;;;;;;4939129;29;21007;-73
2022/09/23 09:31:47;;;;;;;0.93;0.70;;;15.90;66.10;;;;;;4939403;29;20562;-73
2022/09/23 09:34:26;;;;;;;0.63;0.57;;;16.20;66.60;;;;;;4939435;29;20479;-73
2022/09/23 09:37:02;;;;;;;0.60;0.50;;;16.10;65.40;;;;;;4939069;29;20912;-74
2022/09/23 09:39:29;;;;;;;0.60;0.60;;;16.00;65.80;;;;;;4939292;29;20440;-73
2022/09/23 09:41:58;;;;;;;0.70;0.60;;;16.30;66.00;;;;;;4939179;29;20563;-73
2022/09/23 09:44:33;;;;;;;0.70;0.70;;;16.70;65.60;;;;;;4939214;29;20510;-73
2022/09/23 09:47:16;;;;;;;0.70;0.60;;;16.50;64.90;;;;;;4939171;29;20520;-73
2022/09/23 09:49:52;;;;;;;0.60;0.60;;;16.40;65.10;;;;;;4939959;29;20491;-73
2022/09/23 09:52:24;;;;;;;0.70;0.60;;;16.70;65.90;;;;;;4938801;29;20510;-73
2022/09/23 09:54:53;;;;;;;0.60;0.50;;;17.00;64.80;;;;;;4939274;29;20495;-73
2022/09/23 09:57:30;;;;;;;0.60;0.50;;;17.10;64.30;;;;;;4938844;29;20456;-73
2022/09/23 09:59:57;;;;;;;0.60;0.50;;;17.10;64.40;;;;;;4938981;29;20495;-73
2022/09/23 10:02:29;;;;;;;0.60;0.60;;;16.90;64.70;;;;;;4938539;29;20483;-73
2022/09/23 10:04:59;;;;;;;0.60;0.60;;;17.00;65.10;;;;;;4938937;29;20491;-73
2022/09/23 10:07:28;;;;;;;0.70;0.60;;;17.20;65.90;;;;;;4938753;29;20575;-73
2022/09/23 10:09:55;;;;;;;0.70;0.70;;;17.40;65.40;;;;;;4938480;29;20959;-73
2022/09/23 10:12:24;;;;;;;0.70;0.70;;;17.50;65.40;;;;;;4938680;29;20471;-73
2022/09/23 10:14:55;;;;;;;0.60;0.60;;;17.40;64.60;;;;;;4938319;29;20453;-73
2022/09/23 10:17:24;;;;;;;0.70;0.60;;;17.30;64.90;;;;;;4938727;29;20487;-73
2022/09/23 10:19:59;;;;;;;0.67;0.67;;;17.50;65.20;;;;;;4938592;29;20503;-73
2022/09/23 10:22:28;;;;;;;0.60;0.50;;;17.70;64.00;;;;;;4938733;29;20471;-73
2022/09/23 10:24:59;;;;;;;0.60;0.60;;;17.80;65.50;;;;;;4939172;29;20456;-73
2022/09/23 10:27:31;;;;;;;0.60;0.60;;;17.90;64.30;;;;;;4938467;29;20491;-73
2022/09/23 10:30:00;;;;;;;0.70;0.70;;;17.90;61.70;;;;;;4938572;29;20479;-72
2022/09/23 10:32:30;;;;;;;0.60;0.60;;;17.90;62.50;;;;;;4938427;29;20547;-73
2022/09/23 10:35:01;;;;;;;0.70;0.70;;;18.20;62.80;;;;;;4938381;29;20452;-73
2022/09/23 10:37:35;;;;;;;0.80;0.80;;;18.40;61.50;;;;;;4938349;29;20440;-73
2022/09/23 10:49:07;;;;;;;0.60;0.60;;;18.70;58.20;;;;;;4938072;29;20993;-73
2022/09/23 10:51:42;;;;;;;0.70;0.70;;;19.10;58.60;;;;;;4938021;29;20575;-73
2022/09/23 10:54:20;;;;;;;1.23;0.60;;;19.10;59.90;;;;;;4938018;29;20499;-73
2022/09/23 10:56:50;;;;;;;0.80;0.80;;;19.20;57.00;;;;;;4937970;29;20432;-73
2022/09/23 10:59:47;;;;;;;1.23;0.50;;;19.30;57.10;;;;;;4937528;29;20836;-73
2022/09/23 11:02:30;;;;;;;0.60;0.60;;;19.40;57.60;;;;;;4937758;29;20530;-74
2022/09/23 11:05:20;;;;;;;0.60;0.60;;;19.70;57.30;;;;;;4938953;29;20444;-75
2022/09/23 11:07:57;;;;;;;0.60;0.50;;;19.70;58.30;;;;;;4937873;29;20483;-73
2022/09/23 11:10:57;;;;;;;0.60;0.50;;;19.70;59.40;;;;;;4938708;29;20464;-73
2022/09/23 11:13:40;;;;;;;0.80;0.60;;;19.70;58.50;;;;;;4937798;29;20436;-74
2022/09/23 11:16:18;;;;;;;0.60;0.60;;;19.80;58.70;;;;;;4937699;29;20440;-73
2022/09/23 11:19:02;;;;;;;0.70;0.60;;;19.50;57.90;;;;;;4937536;29;20499;-73
2022/09/23 11:21:44;;;;;;;0.60;0.60;;;19.60;57.50;;;;;;4938015;29;20501;-73
2022/09/23 11:24:35;;;;;;;0.70;0.70;;;19.30;58.90;;;;;;4937538;29;20427;-73
2022/09/23 11:27:10;;;;;;;0.70;0.70;;;19.40;58.70;;;;;;4937476;29;20469;-73
2022/09/23 11:30:01;;;;;;;0.60;0.60;;;19.70;58.00;;;;;;4937343;29;20488;-74
2022/09/23 11:33:03;;;;;;;0.70;0.60;;;19.80;58.60;;;;;;4929302;29;20493;-72
2022/09/23 11:35:40;;;;;;;0.60;0.60;;;19.90;57.60;;;;;;4937145;29;20967;-72
2022/09/23 11:38:11;;;;;;;0.60;0.50;;;20.20;57.10;;;;;;4937361;29;20527;-72
2022/09/23 11:40:42;;;;;;;0.60;0.60;;;20.50;56.80;;;;;;4937303;29;20791;-73
2022/09/23 11:43:18;;;;;;;0.80;0.80;;;20.70;55.90;;;;;;4937018;29;20889;-74
2022/09/23 11:45:51;;;;;;;0.90;0.70;;;20.70;55.80;;;;;;4937266;29;20538;-72
2022/09/23 11:48:24;;;;;;;0.70;0.60;;;21.00;55.40;;;;;;4937037;29;21011;-72
2022/09/23 11:50:58;;;;;;;0.90;0.60;;;21.40;56.20;;;;;;4937134;29;20484;-72
2022/09/23 11:53:36;;;;;;;0.77;0.77;;;21.80;54.50;;;;;;4937065;29;20432;-72
2022/09/23 11:56:09;;;;;;;0.70;0.60;;;22.10;54.30;;;;;;4936836;29;20440;-72
2022/09/23 11:58:40;;;;;;;0.60;0.50;;;22.40;53.20;;;;;;4937826;29;20476;-72
2022/09/23 12:01:13;;;;;;;0.70;0.60;;;22.50;52.80;;;;;;4936634;29;20507;-71
2022/09/23 12:03:49;;;;;;;0.70;0.63;;;22.60;52.60;;;;;;4937062;29;20444;-72
2022/09/23 12:06:21;;;;;;;0.60;0.50;;;22.80;52.90;;;;;;4937029;29;20436;-72
2022/09/23 12:08:51;;;;;;;0.70;0.70;;;22.80;51.20;;;;;;4937265;29;20879;-71
2022/09/23 12:11:26;;;;;;;0.67;0.60;;;22.50;52.00;;;;;;4936883;29;20468;-71
2022/09/23 12:14:03;;;;;;;0.70;0.70;;;22.70;53.80;;;;;;4937158;29;20447;-72
2022/09/23 12:16:53;;;;;;;0.90;0.70;;;23.00;53.10;;;;;;4937134;29;20455;-72
2022/09/23 12:19:37;;;;;;;0.70;0.60;;;23.20;51.90;;;;;;4936583;29;20444;-72
2022/09/23 12:22:23;;;;;;;0.70;0.70;;;23.40;51.30;;;;;;4936777;29;20472;-71
2022/09/23 12:24:56;;;;;;;0.60;0.60;;;23.60;51.30;;;;;;4936632;29;20436;-72
2022/09/23 12:27:30;;;;;;;0.70;0.70;;;23.80;50.10;;;;;;4936545;29;20444;-72
2022/09/23 12:30:01;;;;;;;0.70;0.60;;;23.80;50.20;;;;;;4936160;29;20983;-72
2022/09/23 12:32:29;;;;;;;0.60;0.60;;;23.60;49.80;;;;;;4936591;29;20452;-72
2022/09/23 12:34:56;;;;;;;1.07;0.70;;;23.60;50.90;;;;;;4936103;29;20835;-72
2022/09/23 12:37:33;;;;;;;0.80;0.53;;;23.70;51.10;;;;;;4936196;29;20464;-72
2022/09/23 12:40:05;;;;;;;0.70;0.70;;;23.70;51.70;;;;;;4936089;29;20428;-72
2022/09/23 12:42:32;;;;;;;0.60;0.60;;;23.80;51.10;;;;;;4936184;29;20482;-72
2022/09/23 12:45:19;;;;;;;0.60;0.60;;;23.80;50.70;;;;;;4936035;29;20439;-72
2022/09/23 12:47:45;;;;;;;2.50;0.60;;;24.00;50.80;;;;;;4936248;29;20440;-72
2022/09/23 12:50:50;;;;;;;0.80;0.80;;;23.90;50.20;;;;;;4935887;29;20488;-72
2022/09/23 12:53:50;;;;;;;1.00;0.70;;;23.80;50.40;;;;;;4935988;29;20821;-72
2022/09/23 12:56:21;;;;;;;0.70;0.70;;;23.60;50.70;;;;;;4936061;29;20440;-72
2022/09/23 12:59:09;;;;;;;0.60;0.60;;;23.50;51.60;;;;;;4935996;29;20558;-72
2022/09/23 13:01:37;;;;;;;0.97;0.70;;;23.30;51.70;;;;;;4935706;29;20484;-72
2022/09/23 13:06:56;;;;;;;0.60;0.60;;;23.10;52.80;;;;;;4916132;29;20807;-72
2022/09/23 13:09:28;;;;;;;0.70;0.70;;;23.30;52.70;;;;;;4935884;29;20478;-72
2022/09/23 13:11:59;;;;;;;0.70;0.70;;;23.20;52.10;;;;;;4935945;29;20467;-72
2022/09/23 13:14:28;;;;;;;0.80;0.70;;;23.00;52.50;;;;;;4935754;29;20526;-72
2022/09/23 13:16:57;;;;;;;0.70;0.60;;;22.90;52.30;;;;;;4935886;29;20448;-72
2022/09/23 13:19:45;;;;;;;0.67;0.60;;;22.80;52.70;;;;;;4935523;29;20452;-72
2022/09/23 13:22:12;;;;;;;0.80;0.60;;;22.80;53.40;;;;;;4935773;29;20527;-72
2022/09/23 13:24:47;;;;;;;0.70;0.60;;;22.80;52.80;;;;;;4935845;29;20483;-72
2022/09/23 13:27:33;;;;;;;0.60;0.60;;;22.90;52.50;;;;;;4935855;29;20463;-72
2022/09/23 13:31:12;;;;;;;;;;;;;;;;;;;;;
2022/09/23 13:33:43;;;;;;;0.70;0.60;;;22.70;53.30;;;;;;4932623;29;20475;-72
2022/09/23 13:36:13;;;;;;;0.90;0.57;;;22.60;53.30;;;;;;4935774;29;20428;-72
2022/09/23 13:38:41;;;;;;;0.90;0.70;;;22.50;53.60;;;;;;4935427;29;20868;-72
2022/09/23 13:41:12;;;;;;;0.80;0.60;;;22.50;53.70;;;;;;4935678;29;20503;-72
2022/09/23 13:43:43;;;;;;;0.63;0.60;;;22.50;54.10;;;;;;4935764;29;20428;-72
2022/09/23 13:46:12;;;;;;;0.60;0.60;;;22.50;53.50;;;;;;4935400;29;20483;-72
2022/09/23 13:48:40;;;;;;;0.70;0.70;;;22.50;54.00;;;;;;4936614;29;20944;-72
2022/09/23 13:51:10;;;;;;;0.60;0.60;;;22.50;53.90;;;;;;4939086;29;20472;-72
2022/09/23 13:53:37;;;;;;;0.90;0.60;;;22.50;53.60;;;;;;4939112;29;20503;-72
2022/09/23 13:56:06;;;;;;;0.80;0.60;;;22.40;53.40;;;;;;4938781;29;20875;-72
2022/09/23 13:58:34;;;;;;;0.70;0.70;;;22.60;53.40;;;;;;4938994;29;20455;-72
2022/09/23 14:01:02;;;;;;;0.80;0.80;;;23.00;53.00;;;;;;4938777;29;20480;-73
2022/09/23 14:03:31;;;;;;;0.70;0.70;;;23.70;51.50;;;;;;4939321;29;20436;-73
2022/09/23 14:06:00;;;;;;;0.70;0.60;;;24.70;49.40;;;;;;4940181;29;20944;-73
2022/09/23 14:08:28;;;;;;;0.70;0.70;;;25.50;47.90;;;;;;4938791;29;20444;-73
2022/09/23 14:10:56;;;;;;;0.70;0.70;;;26.60;47.10;;;;;;4938751;29;20530;-72
2022/09/23 14:13:26;;;;;;;0.73;0.70;;;28.40;44.10;;;;;;4939412;29;20503;-73
2022/09/23 14:15:54;;;;;;;1.10;1.00;;;30.00;40.80;;;;;;4941286;29;20543;-73
2022/09/23 14:18:31;;;;;;;1.23;0.70;;;31.20;39.20;;;;;;4940937;29;20535;-73
2022/09/23 14:20:58;;;;;;;0.70;0.70;;;32.00;37.90;;;;;;4939518;29;20471;-73
2022/09/23 14:23:25;;;;;;;0.60;0.60;;;32.10;37.60;;;;;;4938662;29;20456;-72
2022/09/23 14:25:53;;;;;;;0.83;0.83;;;32.00;37.80;;;;;;4938562;29;20448;-73
2022/09/23 14:28:23;;;;;;;0.70;0.60;;;31.70;38.20;;;;;;4938211;29;20948;-73
2022/09/23 14:30:52;;;;;;;0.70;0.70;;;32.10;38.10;;;;;;4938420;29;20567;-73
2022/09/23 14:33:23;;;;;;;0.70;0.70;;;32.50;37.50;;;;;;4938411;29;20507;-73
2022/09/23 14:35:54;;;;;;;0.70;0.67;;;32.40;36.60;;;;;;4938385;29;20436;-73
2022/09/23 14:41:17;;;;;;;1.10;0.80;;;31.60;37.80;;;;;;4938165;29;20458;-72
2022/09/23 14:43:49;;;;;;;1.70;0.70;;;30.90;38.40;;;;;;4938261;29;20443;-73
2022/09/23 14:46:18;;;;;;;0.80;0.70;;;30.10;39.60;;;;;;4938193;29;20433;-72
2022/09/23 14:48:53;;;;;;;0.70;0.70;;;29.40;40.90;;;;;;4937969;29;21022;-73
2022/09/23 14:51:30;;;;;;;0.80;0.80;;;28.70;41.90;;;;;;4938028;29;20468;-72
2022/09/23 14:54:37;;;;;;;0.70;0.70;;;28.20;42.50;;;;;;4938043;29;20436;-73
2022/09/23 14:57:24;;;;;;;1.10;0.63;;;27.80;43.00;;;;;;4932830;29;20471;-73
2022/09/23 14:59:53;;;;;;;0.70;0.70;;;27.20;44.20;;;;;;4936409;29;20472;-73
2022/09/23 15:02:30;;;;;;;0.70;0.63;;;26.80;44.50;;;;;;4937677;29;20483;-72
2022/09/23 15:05:17;;;;;;;0.97;0.60;;;26.10;45.60;;;;;;4937808;29;20522;-73
2022/09/23 15:07:49;;;;;;;0.70;0.70;;;25.70;46.60;;;;;;4937980;29;20436;-73
2022/09/23 15:10:22;;;;;;;0.60;0.60;;;25.20;47.20;;;;;;4937689;29;20468;-72
2022/09/23 15:12:50;;;;;;;0.60;0.60;;;24.90;48.30;;;;;;4937653;29;20444;-72
2022/09/23 15:15:17;;;;;;;1.00;1.00;;;24.50;49.20;;;;;;4938996;29;20464;-72
2022/09/23 15:17:45;;;;;;;0.70;0.70;;;24.20;49.80;;;;;;4937560;29;20450;-73
2022/09/23 15:20:21;;;;;;;1.17;0.73;;;24.00;50.30;;;;;;4937548;29;20444;-72
2022/09/23 15:22:52;;;;;;;0.80;0.77;;;23.70;51.00;;;;;;4937442;29;20476;-72
2022/09/23 15:25:22;;;;;;;0.60;0.60;;;23.50;51.60;;;;;;4937456;29;20442;-73
2022/09/23 15:28:04;;;;;;;0.90;0.70;;;23.20;52.80;;;;;;4937092;29;20975;-72
2022/09/23 15:30:31;;;;;;;0.70;0.60;;;23.00;53.40;;;;;;4937182;29;20541;-72
2022/09/23 15:32:58;;;;;;;0.70;0.70;;;22.90;52.80;;;;;;4937323;29;20463;-72
2022/09/23 15:35:26;;;;;;;0.80;0.70;;;22.70;53.20;;;;;;4937274;29;20444;-73
2022/09/23 15:37:57;;;;;;;0.67;0.60;;;22.50;53.30;;;;;;4937223;29;20502;-72
2022/09/23 15:40:26;;;;;;;0.80;0.70;;;22.40;53.80;;;;;;4936802;29;20976;-72
2022/09/23 15:42:56;;;;;;;0.70;0.70;;;22.30;54.20;;;;;;4937090;29;20456;-72
2022/09/23 15:45:30;;;;;;;0.70;0.70;;;22.10;54.80;;;;;;4937083;29;20496;-72
2022/09/23 15:48:02;;;;;;;0.70;0.70;;;22.00;54.30;;;;;;4937065;29;20502;-72
2022/09/23 15:50:30;;;;;;;0.97;0.70;;;21.90;55.10;;;;;;4936870;29;20551;-72
2022/09/23 15:52:58;;;;;;;0.70;0.60;;;21.80;55.30;;;;;;4936935;29;20456;-72
2022/09/23 15:55:25;;;;;;;0.70;0.60;;;21.80;55.60;;;;;;4936869;29;20456;-73
2022/09/23 15:57:51;;;;;;;0.80;0.70;;;21.70;55.70;;;;;;4936885;29;20483;-72
2022/09/23 16:00:19;;;;;;;0.77;0.77;;;21.60;56.30;;;;;;4937291;29;20459;-72
2022/09/23 16:02:48;;;;;;;0.67;0.60;;;21.60;56.00;;;;;;4936553;29;20518;-72
2022/09/23 16:05:21;;;;;;;0.70;0.70;;;21.60;56.30;;;;;;4936782;29;20459;-72
2022/09/23 16:07:50;;;;;;;0.80;0.80;;;21.50;56.50;;;;;;4936792;29;20460;-72
2022/09/23 16:10:20;;;;;;;0.70;0.70;;;21.50;56.50;;;;;;4936896;29;20519;-72
2022/09/23 16:12:47;;;;;;;0.80;0.80;;;21.40;57.40;;;;;;4936241;29;20554;-72
2022/09/23 16:15:16;;;;;;;0.80;0.77;;;21.30;58.60;;;;;;4936267;29;20876;-72
2022/09/23 16:17:43;;;;;;;0.70;0.60;;;21.20;58.40;;;;;;4936560;29;20506;-72
2022/09/23 16:20:10;;;;;;;0.90;0.70;;;21.10;58.10;;;;;;4936591;29;20523;-72
2022/09/23 16:22:38;;;;;;;0.80;0.80;;;21.10;58.70;;;;;;4936419;29;20480;-72
2022/09/23 16:25:07;;;;;;;1.20;0.70;;;21.00;59.90;;;;;;4936413;29;20444;-72